createdAt,value
2023-05-13T00:00:05.627Z,34.69
2023-05-13T00:01:05.688Z,34.69
2023-05-13T00:02:05.710Z,34.71
2023-05-13T00:03:05.900Z,34.70
2023-05-13T00:04:05.833Z,34.70
2023-05-13T00:05:05.894Z,34.69
2023-05-13T00:06:05.950Z,34.72
2023-05-13T00:07:06.020Z,34.71
2023-05-13T00:08:06.105Z,34.72
2023-05-13T00:09:06.149Z,34.71
2023-05-13T00:10:06.229Z,34.71
2023-05-13T00:11:06.261Z,34.70
2023-05-13T00:12:06.306Z,34.70
2023-05-13T00:13:06.393Z,34.69
2023-05-13T00:14:06.404Z,34.68
2023-05-13T00:15:06.458Z,34.72
2023-05-13T00:16:06.517Z,34.71
2023-05-13T00:17:06.570Z,34.70
2023-05-13T00:18:06.625Z,34.70
2023-05-13T00:19:06.743Z,34.71
2023-05-13T00:20:06.732Z,34.72
2023-05-13T00:21:06.764Z,34.69
2023-05-13T00:22:06.842Z,34.71
2023-05-13T00:23:07.255Z,34.71
2023-05-13T00:24:06.961Z,34.71
2023-05-13T00:25:07.037Z,34.70
2023-05-13T00:26:07.093Z,34.72
2023-05-13T00:27:07.172Z,34.70
2023-05-13T00:28:07.275Z,34.70
2023-05-13T00:29:07.222Z,34.71
2023-05-13T00:30:07.331Z,34.70
2023-05-13T00:31:07.426Z,34.71
2023-05-13T00:32:07.427Z,34.71
2023-05-13T00:33:07.534Z,34.72
2023-05-13T00:34:07.539Z,34.73
2023-05-13T00:35:07.662Z,34.72
2023-05-13T00:36:07.696Z,34.72
2023-05-13T00:37:07.740Z,34.72
2023-05-13T00:38:07.809Z,34.72
2023-05-13T00:39:07.823Z,34.73
2023-05-13T00:40:07.899Z,34.75
2023-05-13T00:41:07.988Z,34.73
2023-05-13T00:42:08.021Z,34.74
2023-05-13T00:43:08.308Z,34.72
2023-05-13T00:44:08.124Z,34.71
2023-05-13T00:45:08.208Z,34.72
2023-05-13T00:46:08.277Z,34.74
2023-05-13T00:47:08.336Z,34.72
2023-05-13T00:48:08.410Z,34.76
2023-05-13T00:49:08.487Z,34.73
2023-05-13T00:50:08.561Z,34.73
2023-05-13T00:51:08.577Z,34.71
2023-05-13T00:52:08.675Z,34.74
2023-05-13T00:53:08.677Z,34.75
2023-05-13T00:54:08.745Z,34.74
2023-05-13T00:55:08.796Z,34.73
2023-05-13T00:56:08.888Z,34.73
2023-05-13T00:57:08.945Z,34.72
2023-05-13T00:58:09.025Z,34.73
2023-05-13T00:59:09.046Z,34.75
2023-05-13T01:00:09.153Z,34.76
2023-05-13T01:01:09.231Z,34.76
2023-05-13T01:02:09.314Z,34.77
2023-05-13T01:03:09.416Z,34.74
2023-05-13T01:04:09.365Z,34.74
2023-05-13T01:05:09.426Z,34.74
2023-05-13T01:06:09.482Z,34.76
2023-05-13T01:07:09.573Z,34.75
2023-05-13T01:08:09.586Z,34.76
2023-05-13T01:09:09.638Z,34.78
2023-05-13T01:10:09.707Z,34.76
2023-05-13T01:11:09.766Z,34.75
2023-05-13T01:12:09.838Z,34.73
2023-05-13T01:13:09.893Z,34.74
2023-05-13T01:14:09.940Z,34.74
2023-05-13T01:15:09.986Z,34.73
2023-05-13T01:16:10.072Z,34.76
2023-05-13T01:17:10.139Z,34.75
2023-05-13T01:18:10.267Z,34.74
2023-05-13T01:19:10.286Z,34.74
2023-05-13T01:20:10.298Z,34.74
2023-05-13T01:21:10.344Z,34.76
2023-05-13T01:22:10.417Z,34.77
2023-05-13T01:23:10.467Z,34.75
2023-05-13T01:24:10.558Z,34.75
2023-05-13T01:25:10.647Z,34.75
2023-05-13T01:26:10.650Z,34.74
2023-05-13T01:27:10.725Z,34.75
2023-05-13T01:28:10.774Z,34.74
2023-05-13T01:29:10.820Z,34.76
2023-05-13T01:30:10.863Z,34.77
2023-05-13T01:31:11.060Z,34.75
2023-05-13T01:32:10.992Z,34.75
2023-05-13T01:33:11.243Z,34.73
2023-05-13T01:34:11.115Z,34.75
2023-05-13T01:35:11.156Z,34.78
2023-05-13T01:36:11.221Z,34.75
2023-05-13T01:37:11.272Z,34.74
2023-05-13T01:38:11.299Z,34.77
2023-05-13T01:39:11.284Z,34.75
2023-05-13T01:40:24.192Z,34.74
2023-05-13T01:41:12.230Z,34.75
2023-05-13T01:42:11.259Z,34.75
2023-05-13T01:43:11.275Z,34.77
2023-05-13T01:44:11.286Z,34.74
2023-05-13T01:45:11.202Z,34.75
2023-05-13T01:46:11.255Z,34.75
2023-05-13T01:47:11.232Z,34.73
2023-05-13T01:48:11.196Z,34.75
2023-05-13T01:49:11.227Z,34.74
2023-05-13T01:50:11.189Z,34.76
2023-05-13T01:51:11.191Z,34.75
2023-05-13T01:52:11.180Z,34.76
2023-05-13T01:53:11.242Z,34.76
2023-05-13T01:54:11.289Z,34.74
2023-05-13T01:55:11.320Z,34.74
2023-05-13T01:56:11.401Z,34.75
2023-05-13T01:57:11.439Z,34.74
2023-05-13T01:58:11.467Z,34.73
2023-05-13T01:59:11.523Z,34.74
2023-05-13T02:00:11.552Z,34.75
2023-05-13T02:01:11.568Z,34.73
2023-05-13T02:02:11.817Z,34.75
2023-05-13T02:03:11.829Z,34.73
2023-05-13T02:04:11.727Z,34.75
2023-05-13T02:05:11.790Z,34.71
2023-05-13T02:06:11.826Z,34.74
2023-05-13T02:07:11.857Z,34.75
2023-05-13T02:08:11.858Z,34.75
2023-05-13T02:09:11.930Z,34.74
2023-05-13T02:10:11.978Z,34.73
2023-05-13T02:11:11.976Z,34.74
2023-05-13T02:12:12.013Z,34.74
2023-05-13T02:13:12.115Z,34.74
2023-05-13T02:14:12.127Z,34.75
2023-05-13T02:15:12.205Z,34.72
2023-05-13T02:16:12.321Z,34.75
2023-05-13T02:17:12.190Z,34.74
2023-05-13T02:18:12.238Z,34.76
2023-05-13T02:19:12.274Z,34.75
2023-05-13T02:20:12.256Z,34.75
2023-05-13T02:21:12.301Z,34.72
2023-05-13T02:22:12.306Z,34.74
2023-05-13T02:23:12.333Z,34.76
2023-05-13T02:24:12.374Z,34.75
2023-05-13T02:25:12.375Z,34.74
2023-05-13T02:26:12.405Z,34.74
2023-05-13T02:27:12.508Z,34.76
2023-05-13T02:28:12.865Z,34.75
2023-05-13T02:29:12.509Z,34.76
2023-05-13T02:30:12.552Z,34.73
2023-05-13T02:31:12.547Z,34.73
2023-05-13T02:32:12.607Z,34.74
2023-05-13T02:33:12.683Z,34.74
2023-05-13T02:34:12.579Z,34.74
2023-05-13T02:35:12.595Z,34.73
2023-05-13T02:36:12.592Z,34.76
2023-05-13T02:37:12.571Z,34.73
2023-05-13T02:38:12.598Z,34.74
2023-05-13T02:39:12.557Z,34.72
2023-05-13T02:40:12.576Z,34.74
2023-05-13T02:41:12.578Z,34.76
2023-05-13T02:42:12.575Z,34.74
2023-05-13T02:43:12.617Z,34.74
2023-05-13T02:44:12.604Z,34.74
2023-05-13T02:45:12.611Z,34.72
2023-05-13T02:46:12.673Z,34.74
2023-05-13T02:47:12.637Z,34.73
2023-05-13T02:48:12.836Z,34.73
2023-05-13T02:49:12.668Z,34.74
2023-05-13T02:50:12.686Z,34.75
2023-05-13T02:51:12.716Z,34.75
2023-05-13T02:52:12.702Z,34.73
2023-05-13T02:53:12.714Z,34.72
2023-05-13T02:54:12.691Z,34.76
2023-05-13T02:55:12.821Z,34.74
2023-05-13T02:56:12.705Z,34.75
2023-05-13T02:57:12.694Z,34.75
2023-05-13T02:58:12.796Z,34.75
2023-05-13T02:59:12.709Z,34.75
2023-05-13T03:00:12.739Z,34.75
2023-05-13T03:01:12.830Z,34.73
2023-05-13T03:02:12.770Z,34.73
2023-05-13T03:03:12.835Z,34.75
2023-05-13T03:04:12.747Z,34.74
2023-05-13T03:05:12.713Z,34.77
2023-05-13T03:06:12.701Z,34.75
2023-05-13T03:07:12.701Z,34.73
2023-05-13T03:08:12.870Z,34.72
2023-05-13T03:09:12.718Z,34.75
2023-05-13T03:10:12.707Z,34.73
2023-05-13T03:11:12.681Z,34.74
2023-05-13T03:12:12.693Z,34.74
2023-05-13T03:13:12.695Z,34.74
2023-05-13T03:14:12.713Z,34.74
2023-05-13T03:15:12.754Z,34.73
2023-05-13T03:16:12.774Z,34.75
2023-05-13T03:17:12.719Z,34.75
2023-05-13T03:18:12.752Z,34.71
2023-05-13T03:19:12.792Z,34.73
2023-05-13T03:20:12.733Z,34.74
2023-05-13T03:21:12.751Z,34.73
2023-05-13T03:22:12.719Z,34.73
2023-05-13T03:23:12.738Z,34.75
2023-05-13T03:24:12.749Z,34.74
2023-05-13T03:25:12.783Z,34.73
2023-05-13T03:26:12.793Z,34.74
2023-05-13T03:27:12.804Z,34.76
2023-05-13T03:28:12.852Z,34.74
2023-05-13T03:29:12.857Z,34.74
2023-05-13T03:30:12.802Z,34.74
2023-05-13T03:31:12.871Z,34.75
2023-05-13T03:32:12.830Z,34.75
2023-05-13T03:33:13.347Z,34.75
2023-05-13T03:34:12.855Z,34.76
2023-05-13T03:35:12.852Z,34.76
2023-05-13T03:36:12.929Z,34.76
2023-05-13T03:37:12.945Z,34.75
2023-05-13T03:38:13.379Z,34.76
2023-05-13T03:39:12.874Z,34.77
2023-05-13T03:40:12.880Z,34.76
2023-05-13T03:41:12.888Z,34.79
2023-05-13T03:42:12.898Z,34.76
2023-05-13T03:43:12.893Z,34.76
2023-05-13T03:44:12.891Z,34.76
2023-05-13T03:45:12.912Z,34.75
2023-05-13T03:46:12.918Z,34.76
2023-05-13T03:47:12.886Z,34.76
2023-05-13T03:48:12.954Z,34.77
2023-05-13T03:49:12.883Z,34.78
2023-05-13T03:50:12.875Z,34.77
2023-05-13T03:51:12.891Z,34.77
2023-05-13T03:52:12.894Z,34.76
2023-05-13T03:53:12.901Z,34.77
2023-05-13T03:54:12.928Z,34.77
2023-05-13T03:55:12.882Z,34.77
2023-05-13T03:56:12.887Z,34.77
2023-05-13T03:57:12.859Z,34.78
2023-05-13T03:58:12.872Z,34.78
2023-05-13T03:59:12.909Z,34.79
2023-05-13T04:00:12.916Z,34.77
2023-05-13T04:01:12.876Z,34.78
2023-05-13T04:02:12.909Z,34.78
2023-05-13T04:03:12.889Z,34.78
2023-05-13T04:04:12.884Z,34.78
2023-05-13T04:05:12.979Z,34.79
2023-05-13T04:06:12.854Z,34.78
2023-05-13T04:07:12.870Z,34.80
2023-05-13T04:08:12.911Z,34.80
2023-05-13T04:09:12.866Z,34.79
2023-05-13T04:10:15.368Z,34.81
2023-05-13T04:11:12.894Z,34.81
2023-05-13T04:12:12.851Z,34.80
2023-05-13T04:13:12.823Z,34.78
2023-05-13T04:14:12.862Z,34.81
2023-05-13T04:15:12.843Z,34.83
2023-05-13T04:16:12.836Z,34.79
2023-05-13T04:17:12.895Z,34.80
2023-05-13T04:18:12.781Z,34.81
2023-05-13T04:19:12.974Z,34.81
2023-05-13T04:20:12.761Z,34.82
2023-05-13T04:21:12.822Z,34.82
2023-05-13T04:22:12.810Z,34.81
2023-05-13T04:23:12.762Z,34.81
2023-05-13T04:24:12.891Z,34.81
2023-05-13T04:25:12.780Z,34.82
2023-05-13T04:26:12.759Z,34.82
2023-05-13T04:27:12.728Z,34.83
2023-05-13T04:28:12.738Z,34.81
2023-05-13T04:29:12.765Z,34.83
2023-05-13T04:30:12.698Z,34.82
2023-05-13T04:31:12.708Z,34.83
2023-05-13T04:32:12.757Z,34.83
2023-05-13T04:33:12.714Z,34.82
2023-05-13T04:34:12.652Z,34.83
2023-05-13T04:35:12.712Z,34.84
2023-05-13T04:36:14.381Z,34.84
2023-05-13T04:37:12.650Z,34.83
2023-05-13T04:38:12.662Z,34.84
2023-05-13T04:39:12.868Z,34.83
2023-05-13T04:40:12.642Z,34.83
2023-05-13T04:41:12.637Z,34.84
2023-05-13T04:42:12.632Z,34.84
2023-05-13T04:43:12.668Z,34.84
2023-05-13T04:44:12.592Z,34.82
2023-05-13T04:45:12.591Z,34.86
2023-05-13T04:46:12.635Z,34.85
2023-05-13T04:47:12.614Z,34.86
2023-05-13T04:48:12.629Z,34.85
2023-05-13T04:49:12.606Z,34.87
2023-05-13T04:50:12.600Z,34.84
2023-05-13T04:51:12.567Z,34.86
2023-05-13T04:52:12.584Z,34.84
2023-05-13T04:53:12.557Z,34.88
2023-05-13T04:54:12.561Z,34.87
2023-05-13T04:55:12.557Z,34.89
2023-05-13T04:56:12.546Z,34.87
2023-05-13T04:57:12.537Z,34.87
2023-05-13T04:58:12.596Z,34.87
2023-05-13T04:59:12.557Z,34.88
2023-05-13T05:00:12.592Z,34.86
2023-05-13T05:01:12.592Z,34.87
2023-05-13T05:02:12.532Z,34.89
2023-05-13T05:03:12.584Z,34.88
2023-05-13T05:04:12.642Z,34.88
2023-05-13T05:05:12.546Z,34.87
2023-05-13T05:06:12.555Z,34.89
2023-05-13T05:07:12.558Z,34.89
2023-05-13T05:08:12.598Z,34.90
2023-05-13T05:09:12.886Z,34.89
2023-05-13T05:10:12.549Z,34.90
2023-05-13T05:11:12.530Z,34.91
2023-05-13T05:12:12.493Z,34.90
2023-05-13T05:13:12.658Z,34.90
2023-05-13T05:14:12.501Z,34.91
2023-05-13T05:15:12.499Z,34.93
2023-05-13T05:16:12.475Z,34.92
2023-05-13T05:17:12.502Z,34.91
2023-05-13T05:18:12.578Z,34.93
2023-05-13T05:19:12.481Z,34.92
2023-05-13T05:20:12.504Z,34.92
2023-05-13T05:21:12.467Z,34.93
2023-05-13T05:22:12.462Z,34.95
2023-05-13T05:23:12.459Z,34.91
2023-05-13T05:24:12.456Z,34.93
2023-05-13T05:25:12.448Z,34.93
2023-05-13T05:26:12.730Z,34.93
2023-05-13T05:27:12.450Z,34.95
2023-05-13T05:28:12.457Z,34.96
2023-05-13T05:29:12.877Z,34.94
2023-05-13T05:30:12.452Z,34.95
2023-05-13T05:31:12.539Z,34.96
2023-05-13T05:32:12.433Z,34.99
2023-05-13T05:33:12.448Z,34.96
2023-05-13T05:34:12.902Z,34.98
2023-05-13T05:35:12.445Z,34.96
2023-05-13T05:36:12.487Z,34.98
2023-05-13T05:37:12.469Z,34.99
2023-05-13T05:38:12.434Z,34.98
2023-05-13T05:39:12.912Z,34.98
2023-05-13T05:40:12.438Z,35.00
2023-05-13T05:41:12.440Z,34.97
2023-05-13T05:42:12.459Z,35.00
2023-05-13T05:43:12.463Z,35.02
2023-05-13T05:44:12.916Z,35.00
2023-05-13T05:45:12.464Z,35.02
2023-05-13T05:46:12.616Z,35.01
2023-05-13T05:47:12.462Z,35.01
2023-05-13T05:48:12.522Z,35.02
2023-05-13T05:49:12.473Z,35.01
2023-05-13T05:50:12.506Z,35.01
2023-05-13T05:51:12.489Z,35.02
2023-05-13T05:52:12.477Z,35.03
2023-05-13T05:53:12.489Z,35.01
2023-05-13T05:54:12.481Z,35.02
2023-05-13T05:55:12.469Z,35.03
2023-05-13T05:56:12.506Z,35.03
2023-05-13T05:57:12.520Z,35.05
2023-05-13T05:58:12.457Z,35.07
2023-05-13T05:59:12.916Z,35.03
2023-05-13T06:00:12.458Z,35.05
2023-05-13T06:01:12.474Z,35.05
2023-05-13T06:02:12.491Z,35.05
2023-05-13T06:03:12.562Z,35.06
2023-05-13T06:04:12.536Z,35.05
2023-05-13T06:05:12.440Z,35.07
2023-05-13T06:06:12.402Z,35.08
2023-05-13T06:07:12.453Z,35.09
2023-05-13T06:08:12.448Z,35.09
2023-05-13T06:09:12.896Z,35.07
2023-05-13T06:10:12.418Z,35.10
2023-05-13T06:11:12.412Z,35.07
2023-05-13T06:12:12.465Z,35.09
2023-05-13T06:13:12.383Z,35.12
2023-05-13T06:14:12.422Z,35.11
2023-05-13T06:15:12.419Z,35.11
2023-05-13T06:16:12.456Z,35.12
2023-05-13T06:17:12.412Z,35.12
2023-05-13T06:18:12.392Z,35.11
2023-05-13T06:19:12.551Z,35.11
2023-05-13T06:20:12.419Z,35.12
2023-05-13T06:21:12.427Z,35.13
2023-05-13T06:22:12.368Z,35.14
2023-05-13T06:23:12.377Z,35.12
2023-05-13T06:24:12.397Z,35.14
2023-05-13T06:25:12.360Z,35.14
2023-05-13T06:26:12.339Z,35.14
2023-05-13T06:27:12.377Z,35.13
2023-05-13T06:28:12.390Z,35.16
2023-05-13T06:29:12.401Z,35.16
2023-05-13T06:30:12.328Z,35.16
2023-05-13T06:31:12.453Z,35.17
2023-05-13T06:32:12.387Z,35.18
2023-05-13T06:33:12.366Z,35.18
2023-05-13T06:34:12.362Z,35.17
2023-05-13T06:35:12.334Z,35.20
2023-05-13T06:36:12.327Z,35.20
2023-05-13T06:37:12.311Z,35.20
2023-05-13T06:38:12.332Z,35.19
2023-05-13T06:39:12.415Z,35.19
2023-05-13T06:40:12.366Z,35.19
2023-05-13T06:41:12.319Z,35.20
2023-05-13T06:42:14.202Z,35.20
2023-05-13T06:43:12.386Z,35.21
2023-05-13T06:44:12.328Z,35.21
2023-05-13T06:45:12.330Z,35.22
2023-05-13T06:46:12.307Z,35.22
2023-05-13T06:47:12.381Z,35.24
2023-05-13T06:48:12.388Z,35.23
2023-05-13T06:49:12.434Z,35.26
2023-05-13T06:50:12.275Z,35.23
2023-05-13T06:51:12.390Z,35.25
2023-05-13T06:52:12.348Z,35.25
2023-05-13T06:53:12.307Z,35.23
2023-05-13T06:54:12.277Z,35.28
2023-05-13T06:55:12.280Z,35.26
2023-05-13T06:56:12.313Z,35.25
2023-05-13T06:57:12.308Z,35.27
2023-05-13T06:58:12.282Z,35.27
2023-05-13T06:59:12.283Z,35.27
2023-05-13T07:00:12.249Z,35.29
2023-05-13T07:01:12.364Z,35.32
2023-05-13T07:02:12.320Z,35.29
2023-05-13T07:03:12.268Z,35.31
2023-05-13T07:04:12.596Z,35.29
2023-05-13T07:05:12.278Z,35.30
2023-05-13T07:06:12.284Z,35.32
2023-05-13T07:07:12.269Z,35.31
2023-05-13T07:08:12.261Z,35.33
2023-05-13T07:09:12.297Z,35.32
2023-05-13T07:10:12.308Z,35.33
2023-05-13T07:11:12.296Z,35.33
2023-05-13T07:12:12.289Z,35.33
2023-05-13T07:13:12.269Z,35.33
2023-05-13T07:14:12.281Z,35.32
2023-05-13T07:15:12.240Z,35.35
2023-05-13T07:16:12.238Z,35.34
2023-05-13T07:17:12.285Z,35.35
2023-05-13T07:18:12.410Z,35.35
2023-05-13T07:19:12.488Z,35.37
2023-05-13T07:20:12.260Z,35.37
2023-05-13T07:21:12.339Z,35.38
2023-05-13T07:22:12.300Z,35.36
2023-05-13T07:23:12.282Z,35.38
2023-05-13T07:24:12.454Z,35.37
2023-05-13T07:25:12.310Z,35.39
2023-05-13T07:26:12.257Z,35.41
2023-05-13T07:27:12.295Z,35.36
2023-05-13T07:28:12.266Z,35.40
2023-05-13T07:29:12.281Z,35.39
2023-05-13T07:30:12.257Z,35.40
2023-05-13T07:31:12.334Z,35.41
2023-05-13T07:32:12.259Z,35.42
2023-05-13T07:33:12.355Z,35.41
2023-05-13T07:34:12.315Z,35.43
2023-05-13T07:35:12.282Z,35.44
2023-05-13T07:36:12.282Z,35.45
2023-05-13T07:37:12.294Z,35.43
2023-05-13T07:38:12.351Z,35.43
2023-05-13T07:39:12.465Z,35.44
2023-05-13T07:40:12.353Z,35.43
2023-05-13T07:41:12.405Z,35.45
2023-05-13T07:42:12.378Z,35.45
2023-05-13T07:43:12.373Z,35.46
2023-05-13T07:44:12.419Z,35.44
2023-05-13T07:45:12.440Z,35.45
2023-05-13T07:46:12.429Z,35.47
2023-05-13T07:47:13.618Z,35.46
2023-05-13T07:48:12.547Z,35.45
2023-05-13T07:49:12.530Z,35.47
2023-05-13T07:50:12.542Z,35.46
2023-05-13T07:51:12.557Z,35.48
2023-05-13T07:52:12.550Z,35.47
2023-05-13T07:53:12.557Z,35.47
2023-05-13T07:54:12.522Z,35.48
2023-05-13T07:55:12.575Z,35.48
2023-05-13T07:56:12.530Z,35.49
2023-05-13T07:57:12.526Z,35.50
2023-05-13T07:58:12.526Z,35.50
2023-05-13T07:59:12.598Z,35.50
2023-05-13T08:00:12.678Z,35.47
2023-05-13T08:01:12.611Z,35.49
2023-05-13T08:02:12.672Z,35.49
2023-05-13T08:03:12.748Z,35.52
2023-05-13T08:04:12.804Z,35.52
2023-05-13T08:05:12.738Z,35.51
2023-05-13T08:06:12.703Z,35.52
2023-05-13T08:07:12.684Z,35.51
2023-05-13T08:08:12.705Z,35.54
2023-05-13T08:09:12.967Z,35.53
2023-05-13T08:10:12.729Z,35.52
2023-05-13T08:11:12.678Z,35.55
2023-05-13T08:12:12.683Z,35.52
2023-05-13T08:13:12.688Z,35.54
2023-05-13T08:14:12.712Z,35.55
2023-05-13T08:15:12.746Z,35.53
2023-05-13T08:16:12.795Z,35.53
2023-05-13T08:17:12.761Z,35.54
2023-05-13T08:18:12.785Z,35.54
2023-05-13T08:19:12.785Z,35.57
2023-05-13T08:20:12.950Z,35.57
2023-05-13T08:21:12.785Z,35.54
2023-05-13T08:22:12.801Z,35.54
2023-05-13T08:23:12.788Z,35.55
2023-05-13T08:24:12.791Z,35.57
2023-05-13T08:25:12.807Z,35.55
2023-05-13T08:26:12.822Z,35.58
2023-05-13T08:27:12.813Z,35.55
2023-05-13T08:28:12.904Z,35.56
2023-05-13T08:29:12.935Z,35.57
2023-05-13T08:30:12.969Z,35.56
2023-05-13T08:31:12.964Z,35.58
2023-05-13T08:32:12.918Z,35.58
2023-05-13T08:33:12.938Z,35.57
2023-05-13T08:34:12.942Z,35.58
2023-05-13T08:35:12.944Z,35.57
2023-05-13T08:36:12.986Z,35.57
2023-05-13T08:37:13.043Z,35.55
2023-05-13T08:38:13.027Z,35.58
2023-05-13T08:39:13.036Z,35.56
2023-05-13T08:40:13.090Z,35.56
2023-05-13T08:41:13.127Z,35.58
2023-05-13T08:42:13.144Z,35.59
2023-05-13T08:43:13.159Z,35.56
2023-05-13T08:44:13.214Z,35.58
2023-05-13T08:45:13.272Z,35.57
2023-05-13T08:46:13.298Z,35.57
2023-05-13T08:47:13.279Z,35.57
2023-05-13T08:48:13.365Z,35.58
2023-05-13T08:49:13.310Z,35.57
2023-05-13T08:50:13.469Z,35.58
2023-05-13T08:51:13.355Z,35.57
2023-05-13T08:52:13.386Z,35.56
2023-05-13T08:53:13.438Z,35.57
2023-05-13T08:54:13.445Z,35.60
2023-05-13T08:55:13.395Z,35.57
2023-05-13T08:56:13.408Z,35.57
2023-05-13T08:57:13.415Z,35.57
2023-05-13T08:58:13.424Z,35.59
2023-05-13T08:59:13.380Z,35.57
2023-05-13T09:00:13.484Z,35.58
2023-05-13T09:01:13.503Z,35.57
2023-05-13T09:02:13.602Z,35.58
2023-05-13T09:03:13.563Z,35.55
2023-05-13T09:04:13.584Z,35.57
2023-05-13T09:05:13.708Z,35.58
2023-05-13T09:06:13.740Z,35.58
2023-05-13T09:07:13.741Z,35.58
2023-05-13T09:08:13.782Z,35.56
2023-05-13T09:09:14.391Z,35.57
2023-05-13T09:10:13.911Z,35.60
2023-05-13T09:11:13.935Z,35.56
2023-05-13T09:12:14.036Z,35.58
2023-05-13T09:13:14.028Z,35.56
2023-05-13T09:14:14.036Z,35.58
2023-05-13T09:15:14.060Z,35.59
2023-05-13T09:16:14.178Z,35.59
2023-05-13T09:17:14.039Z,35.60
2023-05-13T09:18:16.376Z,35.60
2023-05-13T09:19:14.228Z,35.60
2023-05-13T09:20:14.077Z,35.58
2023-05-13T09:21:14.094Z,35.58
2023-05-13T09:22:14.036Z,35.59
2023-05-13T09:23:14.024Z,35.58
2023-05-13T09:24:14.038Z,35.61
2023-05-13T09:25:14.029Z,35.60
2023-05-13T09:26:14.036Z,35.58
2023-05-13T09:27:14.005Z,35.59
2023-05-13T09:28:13.999Z,35.59
2023-05-13T09:29:13.975Z,35.61
2023-05-13T09:30:13.987Z,35.60
2023-05-13T09:31:14.053Z,35.60
2023-05-13T09:32:13.976Z,35.60
2023-05-13T09:33:14.019Z,35.58
2023-05-13T09:34:13.978Z,35.59
2023-05-13T09:35:13.962Z,35.59
2023-05-13T09:36:13.963Z,35.61
2023-05-13T09:37:13.982Z,35.58
2023-05-13T09:38:13.914Z,35.60
2023-05-13T09:39:13.926Z,35.61
2023-05-13T09:40:13.922Z,35.62
2023-05-13T09:41:13.898Z,35.62
2023-05-13T09:42:13.910Z,35.62
2023-05-13T09:43:13.877Z,35.61
2023-05-13T09:44:13.935Z,35.61
2023-05-13T09:45:13.878Z,35.63
2023-05-13T09:46:13.928Z,35.63
2023-05-13T09:47:14.026Z,35.63
2023-05-13T09:48:14.026Z,35.63
2023-05-13T09:49:14.080Z,35.62
2023-05-13T09:50:14.132Z,35.63
2023-05-13T09:51:14.209Z,35.63
2023-05-13T09:52:14.266Z,35.62
2023-05-13T09:53:14.337Z,35.62
2023-05-13T09:54:14.359Z,35.62
2023-05-13T09:55:14.511Z,35.63
2023-05-13T09:56:14.478Z,35.60
2023-05-13T09:57:14.527Z,35.62
2023-05-13T09:58:14.560Z,35.63
2023-05-13T09:59:14.630Z,35.63
2023-05-13T10:00:24.761Z,35.62
2023-05-13T10:01:15.751Z,35.66
2023-05-13T10:02:14.671Z,35.63
2023-05-13T10:03:14.725Z,35.63
2023-05-13T10:04:14.714Z,35.62
2023-05-13T10:05:15.031Z,35.62
2023-05-13T10:06:14.831Z,35.64
2023-05-13T10:07:14.833Z,35.59
2023-05-13T10:08:14.859Z,35.63
2023-05-13T10:09:14.926Z,35.62
2023-05-13T10:10:15.032Z,35.64
2023-05-13T10:11:15.450Z,35.65
2023-05-13T10:12:15.120Z,35.64
2023-05-13T10:13:15.100Z,35.62
2023-05-13T10:14:15.185Z,35.62
2023-05-13T10:15:15.226Z,35.65
2023-05-13T10:16:15.281Z,35.62
2023-05-13T10:17:15.321Z,35.64
2023-05-13T10:18:15.449Z,35.65
2023-05-13T10:19:15.573Z,35.65
2023-05-13T10:20:15.530Z,35.62
2023-05-13T10:21:15.534Z,35.64
2023-05-13T10:22:15.611Z,35.64
2023-05-13T10:23:15.682Z,35.63
2023-05-13T10:24:15.714Z,35.66
2023-05-13T10:25:16.001Z,35.64
2023-05-13T10:26:15.784Z,35.63
2023-05-13T10:27:15.852Z,35.63
2023-05-13T10:28:15.823Z,35.64
2023-05-13T10:29:15.951Z,35.64
2023-05-13T10:30:16.014Z,35.65
2023-05-13T10:31:16.047Z,35.62
2023-05-13T10:32:16.127Z,35.64
2023-05-13T10:33:16.216Z,35.63
2023-05-13T10:34:16.179Z,35.64
2023-05-13T10:35:16.502Z,35.64
2023-05-13T10:36:16.280Z,35.65
2023-05-13T10:37:16.318Z,35.64
2023-05-13T10:38:16.350Z,35.65
2023-05-13T10:39:16.402Z,35.63
2023-05-13T10:40:16.539Z,35.65
2023-05-13T10:41:16.546Z,35.63
2023-05-13T10:42:16.594Z,35.63
2023-05-13T10:43:16.664Z,35.65
2023-05-13T10:44:16.739Z,35.63
2023-05-13T10:45:16.795Z,35.66
2023-05-13T10:46:16.868Z,35.66
2023-05-13T10:47:16.923Z,35.66
2023-05-13T10:48:17.010Z,35.64
2023-05-13T10:49:17.029Z,35.65
2023-05-13T10:50:17.531Z,35.66
2023-05-13T10:51:17.061Z,35.66
2023-05-13T10:52:17.125Z,35.67
2023-05-13T10:53:17.193Z,35.64
2023-05-13T10:54:17.221Z,35.67
2023-05-13T10:55:17.517Z,35.65
2023-05-13T10:56:17.283Z,35.67
2023-05-13T10:57:18.375Z,35.67
2023-05-13T10:58:17.404Z,35.66
2023-05-13T10:59:17.461Z,35.64
2023-05-13T11:00:17.554Z,35.66
2023-05-13T11:01:17.654Z,35.69
2023-05-13T11:02:17.637Z,35.67
2023-05-13T11:03:17.690Z,35.64
2023-05-13T11:04:17.697Z,35.67
2023-05-13T11:05:17.731Z,35.68
2023-05-13T11:06:17.773Z,35.66
2023-05-13T11:07:17.857Z,35.67
2023-05-13T11:08:17.876Z,35.65
2023-05-13T11:09:17.962Z,35.66
2023-05-13T11:10:18.578Z,35.67
2023-05-13T11:11:18.082Z,35.65
2023-05-13T11:12:18.174Z,35.67
2023-05-13T11:13:18.263Z,35.68
2023-05-13T11:14:18.283Z,35.67
2023-05-13T11:15:18.322Z,35.70
2023-05-13T11:16:18.590Z,35.68
2023-05-13T11:17:18.425Z,35.66
2023-05-13T11:18:18.459Z,35.68
2023-05-13T11:19:18.512Z,35.65
2023-05-13T11:20:18.599Z,35.67
2023-05-13T11:21:18.619Z,35.66
2023-05-13T11:22:18.684Z,35.67
2023-05-13T11:23:18.738Z,35.68
2023-05-13T11:24:18.832Z,35.66
2023-05-13T11:25:18.848Z,35.69
2023-05-13T11:26:18.961Z,35.67
2023-05-13T11:27:18.939Z,35.65
2023-05-13T11:28:19.018Z,35.66
2023-05-13T11:29:19.049Z,35.66
2023-05-13T11:30:19.260Z,35.67
2023-05-13T11:31:19.610Z,35.67
2023-05-13T11:32:19.269Z,35.68
2023-05-13T11:33:19.298Z,35.67
2023-05-13T11:34:19.390Z,35.66
2023-05-13T11:35:19.446Z,35.67
2023-05-13T11:36:19.491Z,35.67
2023-05-13T11:37:19.600Z,35.67
2023-05-13T11:38:19.616Z,35.65
2023-05-13T11:39:19.669Z,35.66
2023-05-13T11:40:19.914Z,35.68
2023-05-13T11:41:20.020Z,35.67
2023-05-13T11:42:19.869Z,35.67
2023-05-13T11:43:19.913Z,35.67
2023-05-13T11:44:19.972Z,35.66
2023-05-13T11:45:20.238Z,35.66
2023-05-13T11:46:20.077Z,35.66
2023-05-13T11:47:20.096Z,35.66
2023-05-13T11:48:20.154Z,35.66
2023-05-13T11:49:20.215Z,35.66
2023-05-13T11:50:20.315Z,35.67
2023-05-13T11:51:20.337Z,35.66
2023-05-13T11:52:20.406Z,35.68
2023-05-13T11:53:20.454Z,35.67
2023-05-13T11:54:20.489Z,35.64
2023-05-13T11:55:20.732Z,35.66
2023-05-13T11:56:21.017Z,35.66
2023-05-13T11:57:20.715Z,35.67
2023-05-13T11:58:20.752Z,35.66
2023-05-13T11:59:20.824Z,35.67
2023-05-13T12:00:20.867Z,35.67
2023-05-13T12:01:20.912Z,35.67
2023-05-13T12:02:21.062Z,35.69
2023-05-13T12:03:21.038Z,35.65
2023-05-13T12:04:21.079Z,35.68
2023-05-13T12:05:21.260Z,35.68
2023-05-13T12:06:21.246Z,35.68
2023-05-13T12:07:21.297Z,35.66
2023-05-13T12:08:23.655Z,35.67
2023-05-13T12:09:21.436Z,35.68
2023-05-13T12:10:21.462Z,35.68
2023-05-13T12:11:21.532Z,35.66
2023-05-13T12:12:21.614Z,35.69
2023-05-13T12:13:21.625Z,35.64
2023-05-13T12:14:21.687Z,35.66
2023-05-13T12:15:22.109Z,35.68
2023-05-13T12:16:22.112Z,35.67
2023-05-13T12:17:21.935Z,35.68
2023-05-13T12:18:21.926Z,35.68
2023-05-13T12:19:22.018Z,35.67
2023-05-13T12:20:22.030Z,35.68
2023-05-13T12:21:22.118Z,35.69
2023-05-13T12:22:22.171Z,35.68
2023-05-13T12:23:22.263Z,35.69
2023-05-13T12:24:22.316Z,35.68
2023-05-13T12:25:22.578Z,35.66
2023-05-13T12:26:22.405Z,35.66
2023-05-13T12:27:22.471Z,35.71
2023-05-13T12:28:22.560Z,35.68
2023-05-13T12:29:22.605Z,35.70
2023-05-13T12:30:22.657Z,35.69
2023-05-13T12:31:22.750Z,35.70
2023-05-13T12:32:22.810Z,35.69
2023-05-13T12:33:22.834Z,35.68
2023-05-13T12:34:22.890Z,35.71
2023-05-13T12:35:23.106Z,35.70
2023-05-13T12:36:23.114Z,35.71
2023-05-13T12:37:23.076Z,35.71
2023-05-13T12:38:23.127Z,35.70
2023-05-13T12:39:23.146Z,35.69
2023-05-13T12:40:23.188Z,35.70
2023-05-13T12:41:23.610Z,35.70
2023-05-13T12:42:23.316Z,35.70
2023-05-13T12:43:23.374Z,35.73
2023-05-13T12:44:23.429Z,35.72
2023-05-13T12:45:23.794Z,35.72
2023-05-13T12:46:23.584Z,35.73
2023-05-13T12:47:23.545Z,35.73
2023-05-13T12:48:23.657Z,35.74
2023-05-13T12:49:23.663Z,35.73
2023-05-13T12:50:23.723Z,35.71
2023-05-13T12:51:24.098Z,35.74
2023-05-13T12:52:23.831Z,35.73